Time;durP1;ratioP1;P1;durP2;ratioP2;P2;SDS_P1;SDS_P2;PMS_P1;PMS_P2;Temp;Humidity;BMP_temperature;BMP_pressure;BME280_temperature;BME280_humidity;BME280_pressure;Samples;Min_cycle;Max_cycle;Signal;HPM_P1;HPM_P2
2021/01/01 00:00:17;;;;;;;19.17;8.50;;;;;;;4.71;87.29;98313.33;1720008;79;21178;-89
2021/01/01 00:02:48;;;;;;;15.00;7.20;;;;;;;4.68;87.82;98313.84;1718587;81;21159;-89
2021/01/01 00:05:16;;;;;;;13.98;6.72;;;;;;;4.67;87.77;98321.12;1713269;83;21294;-90
2021/01/01 00:07:45;;;;;;;15.68;6.85;;;;;;;4.67;87.49;98316.83;1707951;83;21289;-90
2021/01/01 00:10:15;;;;;;;11.73;5.72;;;;;;;4.69;86.99;98316.81;1723610;80;21112;-91
2021/01/01 00:12:53;;;;;;;14.85;6.67;;;;;;;4.74;88.57;98324.05;1802556;78;22950;-93
2021/01/01 00:15:21;;;;;;;19.15;5.58;;;;;;;4.73;87.99;98335.20;1802914;79;21146;-91
2021/01/01 00:17:48;;;;;;;14.83;6.37;;;;;;;4.74;88.48;98334.34;1798463;79;21280;-91
2021/01/01 00:20:16;;;;;;;14.35;6.08;;;;;;;4.77;88.35;98334.29;1809115;79;21165;-91
2021/01/01 00:22:44;;;;;;;15.60;5.97;;;;;;;4.85;87.53;98341.91;1685613;77;21306;-93
2021/01/01 00:25:12;;;;;;;11.53;6.10;;;;;;;4.87;87.46;98344.03;1643886;86;21207;-92
2021/01/01 00:27:40;;;;;;;10.72;5.25;;;;;;;4.90;87.30;98342.27;1672191;81;21745;-91
2021/01/01 00:30:11;;;;;;;11.90;5.87;;;;;;;4.94;86.89;98355.52;1733911;79;21183;-92
2021/01/01 00:32:49;;;;;;;12.45;6.05;;;;;;;5.00;86.93;98359.73;1820888;78;23308;-92
2021/01/01 00:35:17;;;;;;;11.85;5.65;;;;;;;4.91;87.07;98361.14;1799949;79;21315;-93
2021/01/01 00:37:44;;;;;;;12.98;5.45;;;;;;;4.95;86.84;98360.22;1766316;78;21285;-91
2021/01/01 00:40:12;;;;;;;10.30;5.17;;;;;;;4.91;87.03;98366.29;1728899;82;21167;-92
2021/01/01 00:42:40;;;;;;;8.58;3.98;;;;;;;4.95;86.37;98364.96;1722292;78;21123;-93
2021/01/01 00:45:08;;;;;;;8.83;3.77;;;;;;;4.93;86.42;98374.84;1714910;83;21320;-94
2021/01/01 00:47:37;;;;;;;6.97;3.45;;;;;;;4.91;86.20;98368.87;1725858;79;21164;-93
2021/01/01 00:50:06;;;;;;;5.92;2.85;;;;;;;4.87;86.40;98373.20;1738759;80;21137;-93
2021/01/01 00:52:39;;;;;;;6.30;2.90;;;;;;;4.86;85.87;98369.38;1772898;78;21511;-92
2021/01/01 00:55:10;;;;;;;8.23;3.47;;;;;;;4.83;86.12;98377.14;1748469;78;21202;-92
2021/01/01 00:57:38;;;;;;;10.03;3.62;;;;;;;4.81;86.20;98373.73;1757759;81;21151;-91
2021/01/01 01:00:09;;;;;;;6.17;3.27;;;;;;;4.83;86.06;98371.55;1758343;81;21418;-92
2021/01/01 01:02:37;;;;;;;7.00;2.98;;;;;;;4.82;85.81;98380.16;1752685;80;21159;-91
2021/01/01 01:05:06;;;;;;;5.80;2.87;;;;;;;4.86;85.78;98393.41;1740278;82;22006;-90
2021/01/01 01:07:35;;;;;;;4.15;2.10;;;;;;;4.89;85.72;98389.48;1751378;80;21635;-92
2021/01/01 01:10:04;;;;;;;6.30;2.75;;;;;;;4.92;85.59;98389.45;1701347;82;21165;-89
2021/01/01 01:12:32;;;;;;;5.45;1.90;;;;;;;4.92;85.39;98395.90;1670866;81;21198;-90
2021/01/01 01:14:59;;;;;;;4.28;2.10;;;;;;;4.99;85.31;98400.52;1674678;84;21303;-91
2021/01/01 01:17:27;;;;;;;5.00;1.90;;;;;;;5.02;85.28;98396.62;1681770;84;21819;-90
2021/01/01 01:19:54;;;;;;;4.10;2.00;;;;;;;5.04;84.82;98400.48;1681490;84;21295;-90
2021/01/01 01:22:21;;;;;;;4.03;2.17;;;;;;;5.07;84.45;98405.12;1698543;84;21304;-91
2021/01/01 01:24:49;;;;;;;5.17;1.90;;;;;;;5.14;84.83;98407.20;1692096;83;21330;-91
2021/01/01 01:27:16;;;;;;;5.22;2.50;;;;;;;5.15;84.54;98403.32;1678120;84;21343;-91
2021/01/01 01:29:43;;;;;;;5.83;2.47;;;;;;;5.17;84.28;98413.58;1695257;84;21288;-91
2021/01/01 01:32:11;;;;;;;5.90;2.25;;;;;;;5.19;84.07;98413.13;1679896;84;21186;-91
2021/01/01 01:34:38;;;;;;;4.60;2.35;;;;;;;5.20;84.26;98417.41;1677808;84;21182;-92
2021/01/01 01:37:07;;;;;;;6.37;2.65;;;;;;;5.19;84.17;98418.27;1693342;81;21330;-90
2021/01/01 01:39:34;;;;;;;4.37;2.15;;;;;;;5.16;84.11;98428.64;1735246;82;21171;-91
2021/01/01 01:42:02;;;;;;;5.20;2.37;;;;;;;5.18;83.58;98435.91;1740580;81;21187;-91
2021/01/01 01:44:30;;;;;;;4.95;2.45;;;;;;;5.14;84.02;98441.54;1730689;82;21766;-91
2021/01/01 01:46:57;;;;;;;6.25;2.90;;;;;;;5.12;84.19;98432.98;1735639;81;21192;-91
2021/01/01 01:49:25;;;;;;;4.22;1.98;;;;;;;5.11;84.29;98440.72;1799848;79;21137;-92
2021/01/01 01:51:53;;;;;;;3.75;1.80;;;;;;;5.11;84.18;98442.02;1797817;79;21172;-91
2021/01/01 01:54:21;;;;;;;4.40;2.05;;;;;;;5.14;83.93;98443.27;1760103;78;21196;-90
2021/01/01 01:56:50;;;;;;;4.47;1.98;;;;;;;5.16;83.98;98446.68;1713783;79;21555;-92
2021/01/01 01:59:21;;;;;;;4.45;2.00;;;;;;;5.17;83.85;98449.24;1650411;80;21196;-92
2021/01/01 02:01:49;;;;;;;4.65;2.05;;;;;;;5.21;83.89;98444.03;1705869;81;21284;-92
2021/01/01 02:04:16;;;;;;;4.62;1.80;;;;;;;5.24;83.79;98451.29;1696164;83;21303;-92
2021/01/01 02:06:43;;;;;;;2.58;1.57;;;;;;;5.27;83.26;98454.25;1695409;83;21288;-92
2021/01/01 02:09:13;;;;;;;4.70;1.60;;;;;;;5.31;83.69;98448.17;1733106;78;21308;-92
2021/01/01 02:11:45;;;;;;;4.53;1.80;;;;;;;5.31;82.28;98449.47;1783519;79;21370;-88
2021/01/01 02:14:16;;;;;;;3.77;1.95;;;;;;;5.36;83.38;98452.40;1697705;81;21154;-89
2021/01/01 02:16:44;;;;;;;4.33;1.92;;;;;;;5.40;81.48;98462.68;1713616;83;21308;-90
2021/01/01 02:19:14;;;;;;;3.37;1.50;;;;;;;5.44;82.71;98460.47;1717837;83;21297;-92
2021/01/01 02:21:46;;;;;;;3.45;1.70;;;;;;;5.41;79.88;98461.78;1687723;79;21651;-90
2021/01/01 02:24:13;;;;;;;2.98;1.37;;;;;;;5.42;79.55;98462.22;1741401;79;21134;-92
2021/01/01 02:26:41;;;;;;;1.62;0.98;;;;;;;5.43;79.13;98467.77;1742042;82;21122;-91
2021/01/01 02:29:09;;;;;;;2.70;1.40;;;;;;;5.43;79.44;98467.77;1730520;80;21175;-93
2021/01/01 02:31:37;;;;;;;4.92;1.40;;;;;;;5.41;78.84;98469.52;1774934;80;21189;-93
2021/01/01 02:34:04;;;;;;;1.52;1.00;;;;;;;5.37;77.99;98469.59;1788101;79;21726;-91
2021/01/01 02:36:32;;;;;;;2.85;1.22;;;;;;;5.37;78.72;98472.16;1778036;80;21614;-92
2021/01/01 02:39:01;;;;;;;2.20;1.17;;;;;;;5.36;78.04;98465.28;1809451;78;21211;-92
2021/01/01 02:41:28;;;;;;;1.67;1.20;;;;;;;5.36;79.02;98471.73;1802889;78;21275;-91
2021/01/01 02:43:56;;;;;;;3.30;1.57;;;;;;;5.30;78.02;98469.24;1805925;78;22265;-92
2021/01/01 02:46:24;;;;;;;2.80;1.30;;;;;;;5.26;78.93;98466.29;1775315;78;21240;-91
2021/01/01 02:48:51;;;;;;;3.25;1.50;;;;;;;5.20;79.15;98462.52;1774514;80;21295;-90
2021/01/01 02:51:19;;;;;;;3.20;1.65;;;;;;;5.16;79.68;98468.59;1791308;80;21315;-91
2021/01/01 02:53:46;;;;;;;3.60;1.70;;;;;;;5.04;79.65;98463.59;1764672;80;21847;-91
2021/01/01 02:56:16;;;;;;;3.30;1.60;;;;;;;5.11;79.95;98462.63;1778444;80;21588;-90
2021/01/01 02:58:44;;;;;;;3.42;1.47;;;;;;;5.02;79.97;98462.32;1717687;78;21936;-90
2021/01/01 03:01:11;;;;;;;3.83;1.82;;;;;;;5.06;79.67;98463.14;1738560;80;21428;-91
2021/01/01 03:03:39;;;;;;;3.02;1.55;;;;;;;5.00;79.33;98452.92;1738607;82;21135;-91
2021/01/01 03:06:06;;;;;;;2.30;1.20;;;;;;;5.03;79.34;98458.02;1717216;83;21182;-91
2021/01/01 03:08:34;;;;;;;2.87;1.40;;;;;;;4.98;79.29;98449.91;1676290;81;21173;-91
2021/01/01 03:11:01;;;;;;;1.72;1.02;;;;;;;5.01;79.10;98455.45;1653730;86;21142;-91
2021/01/01 03:13:29;;;;;;;1.82;1.10;;;;;;;4.88;77.38;98466.36;1655957;86;21180;-91
2021/01/01 03:15:56;;;;;;;1.27;0.75;;;;;;;4.84;77.36;98457.41;1653729;85;21176;-90
2021/01/01 03:18:28;;;;;;;0.72;0.62;;;;;;;4.83;77.77;98465.55;1655807;86;21544;-91
2021/01/01 03:20:52;;;;;;;2.75;0.90;;;;;;;4.79;77.06;98474.18;1664637;83;21173;-92
2021/01/01 03:23:20;;;;;;;1.35;0.80;;;;;;;4.81;76.89;98473.73;1729428;81;21174;-92
2021/01/01 03:25:47;;;;;;;1.72;0.72;;;;;;;4.84;77.46;98481.88;1728216;82;21162;-92
2021/01/01 03:28:15;;;;;;;1.20;0.90;;;;;;;4.88;78.29;98480.52;1751346;80;21180;-93
2021/01/01 03:30:43;;;;;;;0.98;0.70;;;;;;;4.86;78.03;98478.84;1685349;82;22245;-92
2021/01/01 03:33:10;;;;;;;0.65;0.65;;;;;;;4.81;74.73;98486.61;1662443;85;21156;-93
2021/01/01 03:35:38;;;;;;;1.47;1.07;;;;;;;4.91;75.12;98482.20;1663647;85;21183;-92
2021/01/01 03:38:06;;;;;;;2.10;1.00;;;;;;;4.90;75.53;98491.66;1624192;87;21198;-92
2021/01/01 03:40:34;;;;;;;0.57;0.57;;;;;;;4.89;75.87;98496.38;1676902;81;21176;-93
2021/01/01 03:43:01;;;;;;;1.82;1.05;;;;;;;4.86;76.04;98499.01;1676817;85;21180;-92
2021/01/01 03:45:32;;;;;;;1.40;0.90;;;;;;;4.82;76.58;98506.35;1677268;85;21303;-92
2021/01/01 03:47:59;;;;;;;3.37;0.95;;;;;;;4.83;76.91;98505.47;1657272;82;21196;-92
2021/01/01 03:50:26;;;;;;;2.30;1.02;;;;;;;4.78;77.06;98505.97;1675391;85;21157;-90
2021/01/01 03:52:54;;;;;;;1.22;0.80;;;;;;;4.76;77.13;98512.86;1726521;83;21861;-92
2021/01/01 03:55:21;;;;;;;1.27;0.80;;;;;;;4.70;77.29;98508.63;1721706;83;21806;-91
2021/01/01 03:57:48;;;;;;;2.00;0.98;;;;;;;4.71;77.45;98513.34;1726879;83;21290;-92
2021/01/01 04:00:16;;;;;;;1.05;0.80;;;;;;;4.70;77.54;98512.48;1726482;83;21304;-91
2021/01/01 04:02:44;;;;;;;1.67;0.90;;;;;;;4.70;77.50;98516.80;1718550;83;21329;-91
2021/01/01 04:05:12;;;;;;;1.42;0.68;;;;;;;4.70;77.96;98515.06;1729462;83;22229;-91
2021/01/01 04:07:39;;;;;;;1.12;0.93;;;;;;;4.45;77.72;98475.00;1716324;83;21276;-92
2021/01/01 04:10:08;;;;;;;1.72;0.90;;;;;;;4.77;77.00;98520.58;1699352;82;21219;-90
2021/01/01 04:12:35;;;;;;;1.67;0.70;;;;;;;4.79;75.89;98519.25;1666340;86;21258;-91
2021/01/01 04:15:05;;;;;;;0.80;0.62;;;;;;;4.80;76.28;98524.83;1692582;84;21191;-92
2021/01/01 04:17:32;;;;;;;0.50;0.50;;;;;;;4.78;76.30;98521.42;1722060;81;21159;-90
2021/01/01 04:19:59;;;;;;;0.40;0.40;;;;;;;4.80;74.63;98520.97;1676615;85;21155;-91
2021/01/01 04:22:27;;;;;;;0.40;0.40;;;;;;;4.81;75.03;98527.81;1716414;83;21155;-92
2021/01/01 04:24:54;;;;;;;0.40;0.40;;;;;;;4.82;73.70;98533.39;1675703;85;21340;-92
2021/01/01 04:27:22;;;;;;;0.30;0.30;;;;;;;4.80;73.35;98530.43;1705170;83;21181;-92
2021/01/01 04:29:49;;;;;;;0.68;0.50;;;;;;;4.80;74.58;98533.84;1707518;83;21196;-92
2021/01/01 04:32:17;;;;;;;1.92;0.68;;;;;;;4.84;75.05;98534.67;1714581;83;21156;-91
2021/01/01 04:34:44;;;;;;;0.70;0.50;;;;;;;4.71;75.28;98533.49;1714297;83;21191;-91
2021/01/01 04:37:11;;;;;;;0.42;0.33;;;;;;;4.46;75.25;98502.02;1719069;83;21179;-91
2021/01/01 04:39:39;;;;;;;1.30;0.90;;;;;;;4.74;75.52;98536.49;1721196;83;21149;-91
2021/01/01 04:42:07;;;;;;;0.72;0.68;;;;;;;4.68;76.37;98544.28;1670000;84;21194;-91
2021/01/01 04:44:35;;;;;;;1.05;0.70;;;;;;;4.67;76.63;98547.27;1670812;80;21183;-92
2021/01/01 04:47:06;;;;;;;0.95;0.78;;;;;;;4.61;76.60;98551.64;1677770;84;21190;-92
2021/01/01 04:49:34;;;;;;;3.92;1.00;;;;;;;4.59;76.32;98543.92;1732273;80;21169;-92
2021/01/01 04:52:03;;;;;;;0.98;0.80;;;;;;;4.56;76.40;98542.23;1729869;81;21231;-90
2021/01/01 04:54:36;;;;;;;0.62;0.60;;;;;;;4.48;76.45;98550.47;1744344;82;21228;-91
2021/01/01 04:57:04;;;;;;;1.35;0.78;;;;;;;4.52;76.28;98547.44;1766618;80;21129;-91
2021/01/01 04:59:31;;;;;;;1.62;0.82;;;;;;;4.50;76.77;98543.59;1724244;82;21320;-90
2021/01/01 05:01:59;;;;;;;1.30;0.80;;;;;;;4.46;77.26;98545.77;1759625;80;21168;-91
2021/01/01 05:04:26;;;;;;;3.27;1.10;;;;;;;4.36;78.15;98545.44;1768014;80;21554;-91
2021/01/01 05:06:55;;;;;;;2.60;0.70;;;;;;;4.35;78.27;98547.58;1714912;83;21204;-90
2021/01/01 05:09:23;;;;;;;1.87;0.78;;;;;;;4.35;77.91;98548.42;1673246;82;21206;-90
2021/01/01 05:12:13;;;;;;;0.45;0.45;;;;;;;4.36;77.77;98549.30;1649451;84;21207;-90
2021/01/01 05:14:53;;;;;;;0.68;0.60;;;;;;;4.36;77.21;98555.73;1634186;86;21182;-91
2021/01/01 05:17:43;;;;;;;1.32;0.78;;;;;;;4.26;76.73;98568.23;1688116;82;21148;-91
2021/01/01 05:20:11;;;;;;;0.75;0.60;;;;;;;4.23;76.70;98571.69;1705393;81;21738;-91
2021/01/01 05:22:38;;;;;;;0.95;0.70;;;;;;;4.19;76.60;98578.58;1735870;82;21272;-91
2021/01/01 05:25:26;;;;;;;0.75;0.70;;;;;;;4.16;76.36;98582.48;1744731;82;21319;-90
2021/01/01 05:28:00;;;;;;;0.50;0.50;;;;;;;4.11;76.62;98584.22;1663985;84;21199;-92
2021/01/01 05:30:32;;;;;;;0.47;0.47;;;;;;;4.16;76.76;98587.62;1677779;84;21323;-92
2021/01/01 05:33:00;;;;;;;0.55;0.55;;;;;;;4.10;76.78;98589.37;1716106;81;21184;-91
2021/01/01 05:35:33;;;;;;;0.50;0.50;;;;;;;4.09;77.19;98589.80;1747899;81;21124;-91
2021/01/01 05:38:22;;;;;;;1.05;0.70;;;;;;;4.12;77.37;98597.52;1694505;82;21594;-90
2021/01/01 05:40:49;;;;;;;0.95;0.68;;;;;;;4.06;77.16;98603.99;1699939;83;21287;-91
2021/01/01 05:43:22;;;;;;;1.02;0.68;;;;;;;4.05;77.00;98611.72;1708925;83;21181;-91
2021/01/01 05:46:11;;;;;;;0.45;0.45;;;;;;;4.09;77.34;98615.53;1802883;78;23885;-91
2021/01/01 05:48:38;;;;;;;2.40;0.80;;;;;;;4.00;77.27;98618.19;1696668;84;21625;-92
2021/01/01 05:51:08;;;;;;;1.60;1.00;;;;;;;3.98;77.52;98625.91;1734109;81;21334;-92
2021/01/01 05:53:36;;;;;;;2.05;0.98;;;;;;;3.90;78.54;98631.53;1732780;81;21324;-90
2021/01/01 05:56:12;;;;;;;1.37;1.05;;;;;;;3.87;78.97;98637.11;1740465;82;21281;-89
2021/01/01 05:58:42;;;;;;;1.15;0.90;;;;;;;3.85;79.52;98646.55;1761074;78;21733;-90
2021/01/01 06:01:10;;;;;;;3.95;1.80;;;;;;;3.81;80.31;98644.42;1756503;81;21185;-89
2021/01/01 06:03:38;;;;;;;2.20;1.17;;;;;;;3.86;79.78;98650.81;1733515;81;21328;-90
2021/01/01 06:06:09;;;;;;;1.42;1.00;;;;;;;3.86;80.49;98661.98;1756071;77;21158;-89
2021/01/01 06:08:41;;;;;;;1.47;1.27;;;;;;;3.82;81.23;98664.55;1768168;78;21195;-90
2021/01/01 06:11:14;;;;;;;1.52;1.07;;;;;;;3.82;81.26;98661.98;1666331;82;21188;-90
2021/01/01 06:13:46;;;;;;;1.55;1.15;;;;;;;3.87;81.14;98668.81;1755037;80;21310;-90
2021/01/01 06:16:17;;;;;;;1.45;0.90;;;;;;;3.86;81.37;98676.53;1707494;79;21148;-92
2021/01/01 06:18:47;;;;;;;3.00;1.30;;;;;;;3.84;81.72;98675.28;1723525;78;21186;-91
2021/01/01 06:21:21;;;;;;;1.85;1.20;;;;;;;3.88;81.31;98679.95;1735963;77;21168;-91
2021/01/01 06:23:52;;;;;;;1.55;0.90;;;;;;;3.85;81.58;98677.41;1734600;80;21201;-91
2021/01/01 06:26:22;;;;;;;2.75;1.20;;;;;;;3.82;81.57;98688.58;1691768;82;21159;-92
2021/01/01 06:28:50;;;;;;;1.30;1.00;;;;;;;3.78;81.70;98681.73;1716799;83;21149;-91
2021/01/01 06:31:18;;;;;;;1.62;1.00;;;;;;;3.82;81.63;98695.41;1741886;81;21181;-90
2021/01/01 06:33:46;;;;;;;1.80;1.10;;;;;;;3.86;80.68;98697.98;1745697;81;21246;-88
2021/01/01 06:39:16;;;;;;;2.45;1.07;;;;;;;3.77;82.59;98703.16;1772611;81;21280;-89
2021/01/01 06:41:46;;;;;;;2.45;1.45;;;;;;;3.85;82.31;98697.98;1731027;81;21613;-91
2021/01/01 06:58:30;;;;;;;4.55;2.15;;;;;;;3.92;82.51;98727.94;1694396;82;23739;-92
2021/01/01 07:00:57;;;;;;;2.08;1.20;;;;;;;3.91;81.96;98732.23;1708292;83;21662;-92
2021/01/01 07:03:31;;;;;;;2.90;1.30;;;;;;;3.92;81.62;98736.94;1742603;82;21194;-91
2021/01/01 07:06:06;;;;;;;5.10;1.50;;;;;;;3.82;82.54;98743.87;1757836;79;21294;-91
2021/01/01 07:11:31;;;;;;;3.92;1.70;;;;;;;3.87;82.50;98747.70;1721639;83;21161;-91
2021/01/01 07:14:07;;;;;;;4.30;1.98;;;;;;;3.95;82.22;98750.66;1704000;81;21236;-92
2021/01/01 07:16:42;;;;;;;2.35;1.30;;;;;;;3.93;83.14;98761.81;1727382;83;21098;-90
2021/01/01 07:19:10;;;;;;;3.60;1.55;;;;;;;3.92;83.16;98763.95;1734168;80;21440;-88
2021/01/01 07:21:41;;;;;;;4.83;1.60;;;;;;;4.02;82.80;98761.79;1692188;84;21363;-91
2021/01/01 07:24:14;;;;;;;3.52;1.60;;;;;;;3.99;82.89;98760.50;1639041;86;21204;-91
2021/01/01 07:26:46;;;;;;;3.37;1.62;;;;;;;4.06;82.72;98764.77;1672032;85;21614;-92
2021/01/01 07:29:25;;;;;;;3.00;1.70;;;;;;;4.05;82.90;98754.48;1644357;86;21185;-93
2021/01/01 07:31:54;;;;;;;3.47;1.85;;;;;;;4.12;82.14;98769.05;1700517;82;21202;-90
2021/01/01 07:34:21;;;;;;;3.37;1.72;;;;;;;4.12;82.37;98763.45;1697629;80;21188;-91
2021/01/01 07:36:51;;;;;;;2.45;1.37;;;;;;;4.12;82.16;98775.47;1700282;83;21159;-87
2021/01/01 07:39:24;;;;;;;6.35;2.52;;;;;;;4.06;82.60;98772.48;1756803;79;21215;-91
2021/01/01 07:42:06;;;;;;;4.12;2.02;;;;;;;4.15;82.25;98775.00;1694523;81;21185;-90
2021/01/01 07:44:34;;;;;;;3.85;1.85;;;;;;;4.16;82.45;98779.30;1676054;82;21174;-89
2021/01/01 07:47:02;;;;;;;10.75;3.70;;;;;;;4.28;82.14;98776.26;1694566;83;21142;-90
2021/01/01 07:49:33;;;;;;;8.28;3.80;;;;;;;4.31;82.21;98778.80;1707353;81;21150;-91
2021/01/01 07:52:04;;;;;;;;;;;;;;;4.38;81.69;98784.36;1679660;78;21190;-91
2021/01/01 07:54:46;;;;;;;5.70;2.50;;;;;;;4.52;82.07;98787.70;1733691;80;20366;-90
2021/01/01 07:57:21;;;;;;;7.75;3.37;;;;;;;4.61;81.98;98784.20;1725689;81;21283;-90
2021/01/01 07:59:58;;;;;;;6.55;2.67;;;;;;;4.53;80.67;98786.83;1677869;84;21177;-92
2021/01/01 08:02:27;;;;;;;7.65;3.67;;;;;;;4.79;80.96;98798.69;1682337;83;21610;-91
2021/01/01 08:04:55;;;;;;;5.53;2.45;;;;;;;4.73;80.08;98796.16;1724821;82;21233;-92
2021/01/01 08:07:24;;;;;;;3.95;2.17;;;;;;;4.83;80.20;98805.97;1664935;82;21182;-92
2021/01/01 08:09:51;;;;;;;3.10;1.80;;;;;;;4.66;79.92;98773.91;1705168;82;21179;-94
2021/01/01 08:12:18;;;;;;;5.10;2.77;;;;;;;4.91;79.83;98807.61;1724852;82;21142;-93
2021/01/01 08:14:52;;;;;;;3.58;1.85;;;;;;;5.02;79.35;98809.28;1725356;82;21178;-94
2021/01/01 08:17:29;;;;;;;3.27;1.70;;;;;;;5.20;79.31;98814.29;1828188;76;23007;-92
2021/01/01 08:19:57;;;;;;;3.17;1.62;;;;;;;5.16;78.74;98816.03;1801144;77;21250;-93
2021/01/01 08:22:34;;;;;;;3.12;1.65;;;;;;;5.15;78.55;98813.05;1730419;76;21169;-92
2021/01/01 08:25:02;;;;;;;2.35;1.32;;;;;;;5.17;78.29;98799.72;1727639;80;21146;-92
2021/01/01 08:27:32;;;;;;;2.62;1.60;;;;;;;5.19;77.63;98802.25;1730301;80;21546;-91
2021/01/01 08:30:03;;;;;;;2.60;1.50;;;;;;;5.28;77.18;98808.64;1727974;77;21175;-89
2021/01/01 08:32:33;;;;;;;3.27;1.67;;;;;;;5.37;77.36;98809.86;1690577;79;21141;-93
2021/01/01 08:35:02;;;;;;;3.55;1.82;;;;;;;5.52;77.69;98810.14;1705201;80;21299;-92
2021/01/01 08:37:33;;;;;;;7.28;2.20;;;;;;;5.49;76.08;98811.89;1694860;81;21149;-94
2021/01/01 08:40:12;;;;;;;5.55;2.35;;;;;;;5.62;76.68;98813.94;1735329;80;21125;-90
2021/01/01 08:42:41;;;;;;;3.98;2.00;;;;;;;5.58;74.91;98815.68;1721129;81;21333;-94
2021/01/01 08:45:11;;;;;;;4.05;1.90;;;;;;;5.78;76.09;98822.78;1705494;80;21191;-91
2021/01/01 08:47:44;;;;;;;3.22;1.87;;;;;;;5.77;75.65;98826.24;1727590;80;21149;-92
2021/01/01 08:50:26;;;;;;;4.30;2.15;;;;;;;5.73;73.86;98831.02;1734574;79;21355;-91
2021/01/01 08:53:01;;;;;;;4.85;2.42;;;;;;;5.84;74.62;98826.18;1748866;79;21178;-94
2021/01/01 08:55:32;;;;;;;3.85;2.05;;;;;;;5.93;75.24;98830.81;1707326;84;21680;-93
2021/01/01 08:58:27;;;;;;;4.58;2.47;;;;;;;5.93;73.88;98834.68;1732807;83;21996;-92
2021/01/01 09:01:20;;;;;;;5.20;2.67;;;;;;;6.04;74.67;98843.63;1760127;80;21180;-93
2021/01/01 09:03:47;;;;;;;6.22;2.83;;;;;;;6.18;75.22;98849.48;1798206;79;21152;-91
2021/01/01 09:06:19;;;;;;;6.70;3.70;;;;;;;6.23;73.25;98849.86;1769861;80;21286;-90
2021/01/01 09:08:46;;;;;;;7.15;3.65;;;;;;;6.28;72.61;98861.84;1725771;78;21157;-92
2021/01/01 09:11:26;;;;;;;8.88;3.85;;;;;;;6.17;69.42;98859.40;1775044;79;21158;-91
2021/01/01 09:14:05;;;;;;;7.50;3.70;;;;;;;6.13;67.94;98873.21;1747087;81;21295;-91
2021/01/01 09:16:36;;;;;;;7.22;3.15;;;;;;;6.14;68.61;98876.64;1713289;83;21633;-91
2021/01/01 09:19:10;;;;;;;11.75;4.78;;;;;;;6.18;68.59;98864.96;1715009;84;21301;-91
2021/01/01 09:21:44;;;;;;;14.10;5.70;;;;;;;6.05;66.69;98872.85;1713747;84;21283;-91
2021/01/01 09:24:12;;;;;;;9.28;4.58;;;;;;;6.04;67.80;98862.98;1715162;84;21725;-94
2021/01/01 09:26:39;;;;;;;12.70;5.90;;;;;;;6.10;68.07;98866.78;1713572;84;21278;-94
2021/01/01 09:29:09;;;;;;;7.10;3.80;;;;;;;6.10;67.73;98871.09;1708394;83;21332;-93
2021/01/01 09:31:38;;;;;;;6.00;3.33;;;;;;;6.10;67.59;98871.09;1717908;78;21603;-93
2021/01/01 09:34:08;;;;;;;4.90;2.55;;;;;;;6.03;67.03;98875.48;1701722;80;21122;-92
2021/01/01 09:36:40;;;;;;;6.95;3.33;;;;;;;6.08;65.97;98878.00;1732818;81;21199;-93
2021/01/01 09:39:12;;;;;;;;;;;;;;;6.01;65.26;98879.80;1784205;79;21156;-93
2021/01/01 09:41:43;;;;;;;8.93;4.17;;;;;;;6.10;65.74;98871.09;1761495;79;20177;-92
2021/01/01 09:44:11;;;;;;;5.62;3.20;;;;;;;6.05;65.22;98876.31;1695372;78;21537;-92
2021/01/01 09:46:43;;;;;;;7.05;3.30;;;;;;;6.20;66.34;98869.27;1713580;83;21165;-92
2021/01/01 09:49:11;;;;;;;6.45;2.67;;;;;;;6.21;65.80;98872.25;1699400;79;21230;-92
2021/01/01 09:51:42;;;;;;;8.18;3.08;;;;;;;6.00;65.45;98847.11;1723507;81;21192;-91
2021/01/01 09:54:09;;;;;;;8.38;2.98;;;;;;;6.05;64.86;98867.28;1693891;83;21197;-91
2021/01/01 09:56:37;;;;;;;6.92;3.10;;;;;;;6.03;63.99;98874.19;1692285;84;21197;-92
2021/01/01 09:59:05;;;;;;;6.95;2.72;;;;;;;6.01;65.54;98874.64;1688851;77;21146;-90
2021/01/01 10:01:33;;;;;;;6.12;2.87;;;;;;;5.99;65.50;98873.80;1664667;86;21346;-91
2021/01/01 10:04:01;;;;;;;6.10;2.52;;;;;;;5.99;65.47;98873.80;1671711;81;21345;-92
2021/01/01 10:06:30;;;;;;;5.03;2.40;;;;;;;6.02;64.90;98877.62;1681077;82;21586;-91
2021/01/01 10:08:57;;;;;;;8.43;3.33;;;;;;;6.03;65.12;98879.34;1694205;84;22484;-91
2021/01/01 10:11:24;;;;;;;6.53;3.10;;;;;;;5.98;64.45;98878.08;1692018;83;21169;-90
2021/01/01 10:13:52;;;;;;;7.05;3.15;;;;;;;6.04;64.42;98877.17;1697078;84;21195;-91
2021/01/01 10:16:19;;;;;;;7.37;3.62;;;;;;;6.04;63.15;98869.88;1692727;83;21176;-92
2021/01/01 10:18:47;;;;;;;6.42;2.87;;;;;;;6.02;63.07;98879.36;1704772;78;21191;-89
2021/01/01 10:21:20;;;;;;;7.35;3.45;;;;;;;6.04;62.12;98882.33;1682437;79;21176;-91
2021/01/01 10:23:48;;;;;;;8.93;3.62;;;;;;;6.04;63.35;98879.75;1673004;83;21166;-93
2021/01/01 10:26:15;;;;;;;15.40;3.75;;;;;;;6.09;63.88;98875.41;1711805;82;21187;-92
2021/01/01 10:28:43;;;;;;;4.95;3.08;;;;;;;6.13;64.14;98872.36;1696397;83;21193;-94
2021/01/01 10:31:11;;;;;;;6.53;3.20;;;;;;;6.11;63.74;98871.53;1755983;80;21111;-91
2021/01/01 10:33:40;;;;;;;5.60;2.60;;;;;;;6.08;61.95;98869.81;1691013;80;21176;-91
2021/01/01 10:36:12;;;;;;;5.87;2.70;;;;;;;6.09;62.99;98870.69;1688081;83;21201;-93
2021/01/01 10:38:39;;;;;;;5.72;3.08;;;;;;;6.07;61.62;98869.41;1670505;82;21514;-91
2021/01/01 10:41:06;;;;;;;6.83;3.42;;;;;;;6.06;62.16;98870.27;1708047;83;21162;-92
2021/01/01 10:43:34;;;;;;;6.53;3.00;;;;;;;6.15;63.01;98874.49;1691939;84;21439;-92
2021/01/01 10:46:01;;;;;;;6.60;2.95;;;;;;;6.15;63.07;98866.30;1740350;81;21147;-91
2021/01/01 10:48:29;;;;;;;6.42;2.90;;;;;;;6.16;62.53;98864.13;1707354;83;21158;-92
2021/01/01 10:50:56;;;;;;;5.87;2.72;;;;;;;6.17;62.75;98867.59;1691478;84;21129;-93
2021/01/01 10:53:24;;;;;;;9.18;2.77;;;;;;;6.27;62.85;98869.19;1740597;81;21156;-92
2021/01/01 10:55:52;;;;;;;5.40;2.65;;;;;;;6.30;60.98;98870.88;1699093;83;21151;-92
2021/01/01 10:58:26;;;;;;;5.70;2.87;;;;;;;6.33;61.64;98866.98;1689681;84;21185;-90
2021/01/01 11:00:56;;;;;;;6.72;3.55;;;;;;;6.45;61.78;98864.25;1739992;80;21587;-92
2021/01/01 11:03:24;;;;;;;5.40;3.10;;;;;;;6.51;62.37;98861.59;1726344;78;21142;-92
2021/01/01 11:05:52;;;;;;;5.47;2.90;;;;;;;6.48;61.99;98865.48;1711151;82;21173;-89
2021/01/01 11:08:19;;;;;;;6.80;3.33;;;;;;;6.49;62.15;98865.91;1701413;83;21181;-91
2021/01/01 11:10:49;;;;;;;7.15;3.12;;;;;;;6.50;62.31;98867.61;1722177;81;21239;-92
2021/01/01 11:13:17;;;;;;;9.08;3.20;;;;;;;6.51;61.05;98869.78;1679125;79;21836;-94
2021/01/01 12:25:14;;;;;;;7.37;3.60;;;;;;;11.63;43.99;98915.55;1728795;82;21276;-87
2021/01/01 12:27:44;;;;;;;6.62;2.77;;;;;;;12.10;44.91;98922.73;1729198;82;21282;-87
2021/01/01 12:30:12;;;;;;;4.75;2.83;;;;;;;12.12;43.76;98923.54;1708255;82;21311;-86
2021/01/01 12:32:42;;;;;;;6.28;2.65;;;;;;;12.24;43.91;98922.27;1738506;82;21412;-87
2021/01/01 12:35:13;;;;;;;9.80;4.08;;;;;;;12.70;47.61;98920.63;1722834;82;21316;-88
2021/01/01 12:37:41;;;;;;;11.10;3.47;;;;;;;12.94;46.19;98930.61;1712414;82;21293;-86
2021/01/01 12:40:10;;;;;;;7.12;3.15;;;;;;;12.91;41.08;98935.50;1736722;82;21178;-86
2021/01/01 12:42:38;;;;;;;6.78;3.08;;;;;;;12.49;43.56;98941.37;1726671;82;21220;-86
2021/01/01 12:45:07;;;;;;;7.37;3.37;;;;;;;11.86;42.36;98940.86;1739913;82;21127;-87
2021/01/01 12:47:35;;;;;;;4.78;2.55;;;;;;;11.27;42.62;98948.80;1729147;82;21308;-87
2021/01/01 12:50:03;;;;;;;5.50;2.95;;;;;;;10.41;44.46;98949.49;1714525;82;21194;-86
2021/01/01 12:52:31;;;;;;;7.17;3.10;;;;;;;9.89;45.07;98956.00;1704435;82;21280;-86
2021/01/01 12:54:59;;;;;;;4.80;2.47;;;;;;;9.60;47.22;98959.28;1725331;82;21485;-85
2021/01/01 12:57:27;;;;;;;4.67;2.58;;;;;;;8.84;46.66;98968.69;1726523;81;21162;-86
2021/01/01 12:59:55;;;;;;;6.25;2.60;;;;;;;8.35;46.80;98966.98;1716613;82;21166;-86
2021/01/01 13:02:23;;;;;;;7.87;2.70;;;;;;;7.99;48.14;98971.08;1730673;81;21184;-92
2021/01/01 13:04:50;;;;;;;5.08;2.67;;;;;;;7.73;49.10;98973.20;1689214;84;21551;-93
2021/01/01 13:07:17;;;;;;;5.42;2.90;;;;;;;7.50;49.95;98974.86;1703018;82;21173;-93
2021/01/01 13:09:44;;;;;;;5.30;2.85;;;;;;;7.37;50.59;98980.63;1699682;84;21308;-92
2021/01/01 13:12:12;;;;;;;8.45;3.08;;;;;;;7.24;51.31;98982.98;1689866;84;21226;-92
2021/01/01 13:14:39;;;;;;;5.17;2.45;;;;;;;7.17;51.40;98980.05;1701316;84;21185;-92
2021/01/01 13:17:06;;;;;;;5.05;2.08;;;;;;;7.00;52.10;98989.74;1699253;84;21171;-92
2021/01/01 13:19:33;;;;;;;5.95;2.60;;;;;;;6.92;52.26;98976.91;1702687;84;21190;-92
2021/01/01 13:22:01;;;;;;;10.40;4.00;;;;;;;6.82;52.67;98989.08;1697314;84;21194;-92